Time;durP1;ratioP1;P1;durP2;ratioP2;P2;SDS_P1;SDS_P2;PMS_P1;PMS_P2;Temp;Humidity;BMP_temperature;BMP_pressure;BME280_temperature;BME280_humidity;BME280_pressure;Samples;Min_cycle;Max_cycle;Signal;HPM_P1;HPM_P2
2022/06/19 00:01:12;;;;;;;13.40;4.85;;;;;;;24.57;46.17;98194.22;2618756;39;20082;-72
2022/06/19 00:03:47;;;;;;;13.98;4.85;;;;;;;24.64;45.70;98186.50;2617929;54;20125;-70
2022/06/19 00:06:18;;;;;;;11.88;4.40;;;;;;;24.62;45.54;98180.63;2618353;54;20121;-69
2022/06/19 00:08:48;;;;;;;10.32;4.60;;;;;;;24.53;45.73;98183.19;2618231;54;20027;-69
2022/06/19 00:11:22;;;;;;;14.68;4.45;;;;;;;24.58;45.99;98180.41;2617637;54;20034;-70
2022/06/19 00:13:52;;;;;;;10.57;4.40;;;;;;;24.51;45.75;98180.00;2617208;54;20030;-71
2022/06/19 00:16:21;;;;;;;11.10;4.75;;;;;;;24.49;46.40;98173.28;2617162;47;20041;-69
2022/06/19 00:18:51;;;;;;;11.68;4.82;;;;;;;24.45;46.64;98186.59;2617297;47;20038;-69
2022/06/19 00:21:21;;;;;;;12.27;4.68;;;;;;;24.26;46.85;98173.13;2618331;39;20430;-70
2022/06/19 00:23:50;;;;;;;9.30;4.43;;;;;;;24.25;47.32;98168.00;2617009;54;20034;-70
2022/06/19 00:26:23;;;;;;;12.52;4.32;;;;;;;24.14;47.13;98165.50;2617897;54;20530;-70
2022/06/19 00:28:52;;;;;;;11.20;3.77;;;;;;;24.11;46.19;98159.88;2617303;47;20030;-71
2022/06/19 00:31:22;;;;;;;9.43;3.90;;;;;;;24.17;46.16;98161.41;2621824;54;20039;-70
2022/06/19 00:33:52;;;;;;;8.60;4.13;;;;;;;24.24;45.78;98161.81;2626093;39;20542;-70
2022/06/19 00:36:25;;;;;;;10.30;4.10;;;;;;;24.21;45.83;98173.22;2622740;47;20027;-71
2022/06/19 00:38:54;;;;;;;12.15;5.00;;;;;;;;;;2622012;54;20038;-69
2022/06/19 00:41:27;;;;;;;9.70;4.97;;;;;;;23.98;46.64;98159.56;2624353;31;20508;-69
2022/06/19 00:43:59;;;;;;;11.00;4.22;;;;;;;23.94;46.88;98157.75;2622562;54;20593;-69
2022/06/19 00:46:44;;;;;;;13.70;4.57;;;;;;;23.98;46.84;98156.84;2623025;54;20026;-72
2022/06/19 00:49:16;;;;;;;14.80;4.40;;;;;;;24.01;46.87;98152.78;2622687;47;20086;-70
2022/06/19 00:51:46;;;;;;;10.45;4.82;;;;;;;23.96;46.63;98156.38;2621942;54;20023;-70
2022/06/19 00:54:20;;;;;;;13.30;4.53;;;;;;;23.97;46.52;98149.88;2617749;54;20035;-70
2022/06/19 00:56:52;;;;;;;13.93;4.78;;;;;;;23.94;46.64;98146.94;2617152;47;20077;-70
2022/06/19 00:59:22;;;;;;;12.00;4.43;;;;;;;23.85;46.77;98154.13;2617233;47;20035;-70
2022/06/19 01:01:52;;;;;;;11.77;3.88;;;;;;;23.86;46.44;98147.63;2617937;54;20046;-69
2022/06/19 01:04:27;;;;;;;16.23;4.50;;;;;;;23.91;46.15;98140.22;2618290;54;20030;-69
2022/06/19 01:06:57;;;;;;;14.00;4.35;;;;;;;23.97;45.79;98143.66;2617959;54;20589;-68
2022/06/19 01:09:26;;;;;;;13.77;3.90;;;;;;;24.04;45.37;98138.66;2618057;54;20799;-70
2022/06/19 01:11:58;;;;;;;13.93;4.57;;;;;;;24.10;45.29;98139.41;2617601;54;20026;-69
2022/06/19 01:14:29;;;;;;;14.48;4.47;;;;;;;24.17;45.05;98142.50;2617634;54;20038;-71
2022/06/19 01:16:59;;;;;;;13.85;3.75;;;;;;;24.21;44.64;98147.03;2617357;54;20605;-70
2022/06/19 01:19:32;;;;;;;12.73;4.43;;;;;;;24.32;43.84;98144.13;2616804;47;20038;-69
2022/06/19 01:22:08;;;;;;;17.70;4.25;;;;;;;24.41;43.53;98129.69;2616850;54;20030;-70
2022/06/19 01:24:46;;;;;;;14.05;3.70;;;;;;;24.48;43.52;98131.16;2618316;54;20055;-70
2022/06/19 01:30:02;;;;;;;14.77;3.88;;;;;;;24.53;42.98;98136.47;2624207;54;20034;-71
2022/06/19 01:32:32;;;;;;;12.90;4.03;;;;;;;24.62;42.46;98131.97;2625947;54;20046;-70
2022/06/19 01:35:03;;;;;;;15.75;3.75;;;;;;;24.70;41.52;98128.56;2620960;54;20034;-69
2022/06/19 01:37:33;;;;;;;15.52;4.35;;;;;;;24.85;41.10;98128.25;2618906;54;20541;-69
2022/06/19 01:40:08;;;;;;;13.15;3.88;;;;;;;25.03;40.33;98129.22;2617884;47;20026;-69
2022/06/19 01:42:40;;;;;;;17.63;4.05;;;;;;;25.19;39.74;98121.63;2618241;54;20038;-70
2022/06/19 01:45:11;;;;;;;20.20;4.43;;;;;;;25.30;39.21;98127.59;2622834;39;20449;-72
2022/06/19 01:47:43;;;;;;;13.50;4.45;;;;;;;25.38;39.21;98118.75;2619848;39;20441;-69
2022/06/19 01:50:15;;;;;;;15.65;4.55;;;;;;;25.40;39.26;98120.03;2625443;54;20038;-68
2022/06/19 01:52:46;;;;;;;16.35;4.38;;;;;;;25.37;39.36;98119.84;2625850;39;20470;-68
2022/06/19 01:55:18;;;;;;;26.95;4.63;;;;;;;25.41;38.78;98118.13;2627039;54;20026;-69
2022/06/19 01:57:53;;;;;;;13.23;3.53;;;;;;;25.51;38.49;98109.75;2627711;54;20049;-69
2022/06/19 02:00:26;;;;;;;18.15;4.03;;;;;;;25.62;38.07;98107.63;2627374;54;20046;-70
2022/06/19 02:02:58;;;;;;;;;;;;;;;25.70;38.10;98104.97;2625105;54;20041;-70
2022/06/19 02:05:27;;;;;;;17.92;4.13;;;;;;;25.77;37.91;98101.88;2622870;47;19995;-70
2022/06/19 02:07:57;;;;;;;21.40;4.55;;;;;;;25.80;37.77;98106.69;2618490;39;20447;-70
2022/06/19 02:10:27;;;;;;;17.83;4.65;;;;;;;25.82;37.82;98106.34;2617960;54;20046;-70
2022/06/19 02:13:01;;;;;;;16.95;4.05;;;;;;;25.84;37.45;98104.94;2617947;54;20050;-70
2022/06/19 02:15:33;;;;;;;15.82;4.18;;;;;;;25.86;37.69;98112.75;2618473;54;20034;-69
2022/06/19 02:18:11;;;;;;;15.80;4.50;;;;;;;25.85;38.09;98114.66;2617591;54;20034;-69
2022/06/19 02:20:41;;;;;;;16.35;4.20;;;;;;;25.35;39.39;98124.75;2618057;54;20039;-69
2022/06/19 02:23:11;;;;;;;16.40;4.63;;;;;;;25.07;40.15;98116.72;2617889;54;20042;-69
2022/06/19 02:25:44;;;;;;;16.70;4.30;;;;;;;24.97;40.96;98119.63;2617936;54;20087;-69
2022/06/19 02:28:18;;;;;;;11.63;4.38;;;;;;;24.94;40.69;98123.75;2617907;54;20085;-69
2022/06/19 02:30:49;;;;;;;14.65;4.30;;;;;;;24.82;41.33;98119.94;2617944;54;20561;-69
2022/06/19 02:33:27;;;;;;;14.57;4.03;;;;;;;24.71;41.75;98120.16;2618039;54;20086;-70
2022/06/19 02:35:57;;;;;;;15.32;4.53;;;;;;;24.51;42.51;98125.16;2618372;54;20602;-69
2022/06/19 02:38:26;;;;;;;17.70;5.07;;;;;;;24.35;42.71;98125.41;2618398;54;20074;-69
2022/06/19 02:41:05;;;;;;;14.85;4.22;;;;;;;24.30;43.10;98122.03;2618343;54;20046;-69
2022/06/19 02:43:38;;;;;;;11.40;4.55;;;;;;;24.22;43.29;98118.91;2618058;54;20589;-69
2022/06/19 02:46:08;;;;;;;11.07;5.10;;;;;;;24.15;43.29;98105.00;2617970;54;20057;-70
2022/06/19 02:48:38;;;;;;;12.38;4.50;;;;;;;23.98;44.00;98099.38;2617491;47;20534;-70
2022/06/19 02:51:08;;;;;;;11.93;4.78;;;;;;;23.98;44.33;98096.66;2618229;54;20034;-70
2022/06/19 02:53:38;;;;;;;11.15;4.45;;;;;;;23.88;44.30;98100.38;2618266;54;20043;-70
2022/06/19 02:56:07;;;;;;;20.42;5.60;;;;;;;23.88;44.26;98102.22;2618538;54;20049;-69
2022/06/19 02:58:39;;;;;;;16.30;5.05;;;;;;;23.96;44.31;98101.56;2618346;54;20569;-69
2022/06/19 03:01:09;;;;;;;13.73;4.95;;;;;;;23.96;44.09;98096.97;2618399;54;20055;-69
2022/06/19 03:03:39;;;;;;;16.80;4.45;;;;;;;23.94;44.09;98098.38;2617948;54;20046;-69
2022/06/19 03:06:09;;;;;;;9.68;4.15;;;;;;;23.94;43.99;98092.97;2618488;39;20442;-70
2022/06/19 03:08:39;;;;;;;18.15;5.22;;;;;;;23.98;44.02;98089.38;2618709;31;20512;-69
2022/06/19 03:11:10;;;;;;;18.65;4.60;;;;;;;24.05;43.91;98093.59;2618053;54;20041;-70
2022/06/19 03:13:42;;;;;;;14.65;5.03;;;;;;;24.06;43.76;98087.88;2617261;47;20053;-68
2022/06/19 03:16:13;;;;;;;15.88;4.88;;;;;;;24.03;43.80;98090.38;2618056;54;20031;-69
2022/06/19 03:18:42;;;;;;;15.48;4.43;;;;;;;24.06;43.74;98104.09;2617450;47;20102;-69
2022/06/19 03:21:12;;;;;;;11.30;4.28;;;;;;;24.07;43.81;98096.78;2617815;54;20090;-69
2022/06/19 03:23:41;;;;;;;11.60;4.70;;;;;;;24.09;43.74;98089.19;2617581;54;20095;-69
2022/06/19 03:26:11;;;;;;;13.43;4.93;;;;;;;24.23;43.42;98088.09;2617986;54;20034;-70
2022/06/19 03:28:43;;;;;;;12.45;5.63;;;;;;;24.35;43.36;98086.81;2617781;54;20046;-70
2022/06/19 03:31:16;;;;;;;13.80;4.70;;;;;;;24.43;42.92;98095.03;2617837;54;20569;-70
2022/06/19 03:33:46;;;;;;;14.45;4.78;;;;;;;24.52;43.15;98097.84;2617694;54;20077;-70
2022/06/19 03:36:16;;;;;;;16.73;5.80;;;;;;;24.59;42.50;98103.66;2617875;54;20055;-70
2022/06/19 03:38:45;;;;;;;16.58;5.45;;;;;;;24.67;42.46;98099.44;2617656;54;20034;-70
2022/06/19 03:41:15;;;;;;;15.43;5.68;;;;;;;24.76;42.77;98099.53;2617981;54;20041;-70
2022/06/19 03:43:47;;;;;;;21.48;5.65;;;;;;;24.86;42.53;98097.44;2618347;54;20034;-70
2022/06/19 03:46:19;;;;;;;14.90;5.28;;;;;;;24.99;42.11;98087.69;2618285;54;20568;-70
2022/06/19 03:48:50;;;;;;;12.25;5.57;;;;;;;25.17;42.31;98084.03;2618228;54;20053;-69
2022/06/19 03:51:23;;;;;;;14.00;5.47;;;;;;;25.31;42.11;98091.31;2618520;54;20031;-70
2022/06/19 03:53:54;;;;;;;11.88;5.55;;;;;;;25.43;41.42;98102.38;2620008;54;20073;-69
2022/06/19 03:56:26;;;;;;;14.20;6.10;;;;;;;25.52;41.97;98103.28;2620783;54;20038;-69
2022/06/19 03:58:59;;;;;;;12.17;6.03;;;;;;;25.60;41.63;98107.16;2621419;54;20111;-69
2022/06/19 04:01:32;;;;;;;12.65;5.88;;;;;;;25.66;41.80;98112.13;2622510;54;20033;-69
2022/06/19 04:04:03;;;;;;;15.13;5.95;;;;;;;25.70;41.38;98115.00;2622070;54;20580;-69
2022/06/19 04:06:36;;;;;;;10.23;6.05;;;;;;;25.76;41.58;98102.13;2622161;54;20034;-69
2022/06/19 04:09:08;;;;;;;14.75;6.00;;;;;;;25.82;41.41;98106.34;2618234;54;20044;-70
2022/06/19 04:11:37;;;;;;;13.73;6.15;;;;;;;25.87;41.63;98123.25;2618194;54;20034;-69
2022/06/19 04:14:10;;;;;;;20.38;5.90;;;;;;;25.93;41.60;98121.25;2618619;39;20442;-69
2022/06/19 04:16:40;;;;;;;9.47;5.87;;;;;;;25.99;41.41;98125.41;2618455;54;20070;-69
2022/06/19 04:19:10;;;;;;;14.68;5.93;;;;;;;26.05;41.24;98124.19;2617643;54;20104;-70
2022/06/19 04:21:43;;;;;;;12.48;6.05;;;;;;;26.10;41.72;98107.00;2618156;54;20039;-69
2022/06/19 04:24:16;;;;;;;8.50;5.60;;;;;;;26.15;41.62;98104.94;2617921;54;20054;-69
2022/06/19 04:26:45;;;;;;;17.63;6.43;;;;;;;26.22;41.27;98114.56;2617849;54;20038;-69
2022/06/19 04:29:19;;;;;;;14.35;6.28;;;;;;;26.28;41.07;98107.88;2617634;54;20131;-69
2022/06/19 04:31:49;;;;;;;16.90;6.00;;;;;;;26.35;41.22;98103.59;2617555;54;20030;-70
2022/06/19 04:34:18;;;;;;;6.75;5.55;;;;;;;26.40;41.19;98105.38;2617467;54;20037;-70
2022/06/19 04:36:48;;;;;;;14.07;6.40;;;;;;;26.45;41.25;98104.47;2617462;54;20065;-69
2022/06/19 04:39:17;;;;;;;11.50;6.85;;;;;;;26.51;41.35;98114.06;2617497;54;20027;-68
2022/06/19 04:41:47;;;;;;;13.43;5.82;;;;;;;26.50;41.56;98101.63;2618125;54;20122;-71
2022/06/19 04:44:20;;;;;;;13.38;6.65;;;;;;;26.52;41.63;98105.59;2625140;54;20103;-71
2022/06/19 04:46:50;;;;;;;10.70;5.72;;;;;;;26.52;41.70;98111.03;2625339;46;20042;-69
2022/06/19 04:49:20;;;;;;;9.57;5.93;;;;;;;26.53;41.86;98103.69;2617846;54;20058;-69
2022/06/19 04:51:49;;;;;;;15.77;6.75;;;;;;;26.51;42.12;98112.16;2618558;54;20059;-70
2022/06/19 04:54:19;;;;;;;16.83;6.70;;;;;;;26.55;41.91;98106.91;2619526;54;20037;-70
2022/06/19 04:56:48;;;;;;;10.60;6.40;;;;;;;26.63;42.32;98098.78;2622439;54;20033;-71
2022/06/19 04:59:20;;;;;;;11.35;6.82;;;;;;;26.74;41.80;98093.88;2623252;54;20558;-69
2022/06/19 05:01:50;;;;;;;10.97;6.83;;;;;;;26.77;42.40;98095.94;2624149;54;20027;-69
2022/06/19 05:04:20;;;;;;;10.52;6.85;;;;;;;26.87;42.00;98092.94;2624170;54;20153;-69
2022/06/19 05:06:49;;;;;;;9.27;6.82;;;;;;;26.95;42.24;98085.94;2623598;54;20030;-69
2022/06/19 05:09:19;;;;;;;11.02;6.90;;;;;;;27.01;42.37;98092.78;2623791;39;20465;-69
2022/06/19 05:11:49;;;;;;;9.63;7.20;;;;;;;27.10;42.08;98095.53;2622320;51;20030;-69
2022/06/19 05:14:21;;;;;;;10.80;6.82;;;;;;;27.17;41.28;98095.88;2622691;54;20037;-70
2022/06/19 05:16:50;;;;;;;12.60;6.67;;;;;;;27.21;41.64;98098.75;2623028;54;20023;-68
2022/06/19 05:19:20;;;;;;;13.15;5.95;;;;;;;27.30;40.85;98102.25;2623432;54;20034;-69
2022/06/19 05:21:50;;;;;;;12.77;6.63;;;;;;;27.33;40.74;98104.34;2624216;54;20041;-70
2022/06/19 05:24:19;;;;;;;12.45;7.05;;;;;;;27.40;41.33;98107.38;2624789;54;20525;-69
2022/06/19 05:26:50;;;;;;;10.38;6.53;;;;;;;27.46;40.76;98108.00;2623885;47;20091;-70
2022/06/19 05:29:23;;;;;;;8.95;6.93;;;;;;;27.56;40.55;98115.84;2624347;47;20034;-70
2022/06/19 05:31:53;;;;;;;13.10;6.28;;;;;;;27.59;40.43;98113.25;2624420;54;20607;-70
2022/06/19 05:34:22;;;;;;;7.35;6.65;;;;;;;27.66;39.91;98118.22;2622348;54;20029;-69
2022/06/19 05:36:52;;;;;;;12.50;6.35;;;;;;;27.68;39.48;98107.84;2624140;54;20030;-69
2022/06/19 05:39:22;;;;;;;8.13;6.13;;;;;;;27.71;39.64;98104.47;2623317;54;20037;-70
2022/06/19 05:41:52;;;;;;;11.43;6.07;;;;;;;27.75;38.90;98116.31;2618563;54;20034;-70
2022/06/19 05:44:24;;;;;;;12.82;6.00;;;;;;;27.78;38.33;98107.53;2618815;54;20026;-70
2022/06/19 05:46:55;;;;;;;9.85;5.95;;;;;;;27.81;38.94;98101.44;2618570;54;20078;-69
2022/06/19 05:49:25;;;;;;;10.63;6.32;;;;;;;27.91;38.47;98103.03;2618777;54;20038;-69
2022/06/19 05:51:54;;;;;;;12.90;5.50;;;;;;;27.96;37.83;98093.91;2618676;54;20035;-70
2022/06/19 05:54:24;;;;;;;9.70;5.75;;;;;;;27.96;37.84;98093.91;2618531;54;20034;-68
2022/06/19 05:56:53;;;;;;;10.55;5.70;;;;;;;27.96;37.50;98102.84;2618570;54;20038;-69
2022/06/19 05:59:25;;;;;;;9.13;5.53;;;;;;;28.05;37.61;98100.91;2619240;54;20042;-69
2022/06/19 06:01:55;;;;;;;12.95;5.68;;;;;;;28.10;37.49;98094.50;2619429;54;20035;-69
2022/06/19 06:04:26;;;;;;;9.98;5.10;;;;;;;28.18;37.39;98104.56;2618422;54;20034;-70
2022/06/19 06:06:56;;;;;;;12.77;4.97;;;;;;;28.22;36.90;98097.34;2619041;54;20030;-69
2022/06/19 06:09:26;;;;;;;7.13;4.68;;;;;;;28.26;36.99;98095.56;2618369;54;20026;-68
2022/06/19 06:11:56;;;;;;;7.53;4.75;;;;;;;28.38;36.94;98103.06;2618668;54;20034;-70
2022/06/19 06:14:28;;;;;;;9.85;5.07;;;;;;;28.42;36.49;98095.84;2618276;47;20082;-69
2022/06/19 06:16:57;;;;;;;11.60;5.38;;;;;;;28.49;36.84;98096.13;2618684;54;20086;-70
2022/06/19 06:19:27;;;;;;;7.93;4.93;;;;;;;28.54;36.50;98093.25;2618407;54;20046;-68
2022/06/19 06:21:56;;;;;;;7.97;4.78;;;;;;;28.58;36.41;98093.38;2618025;54;20044;-70
2022/06/19 06:24:26;;;;;;;8.77;5.47;;;;;;;28.63;36.03;98088.53;2618254;54;20038;-69
2022/06/19 06:26:57;;;;;;;8.32;5.07;;;;;;;28.71;36.16;98095.06;2618464;54;20035;-70
2022/06/19 06:29:29;;;;;;;8.90;5.15;;;;;;;28.79;35.49;98087.97;2617914;47;20040;-69
2022/06/19 06:31:59;;;;;;;6.65;4.88;;;;;;;28.84;36.04;98096.75;2618109;54;20049;-69
2022/06/19 06:34:29;;;;;;;5.47;4.78;;;;;;;28.95;35.31;98090.91;2618340;54;20022;-69
2022/06/19 06:36:58;;;;;;;10.02;4.50;;;;;;;28.99;35.20;98092.69;2618345;54;20026;-70
2022/06/19 06:39:28;;;;;;;7.28;5.03;;;;;;;28.98;35.55;98093.78;2618160;54;20038;-69
2022/06/19 06:41:58;;;;;;;14.13;5.25;;;;;;;29.02;35.08;98096.66;2618168;54;20582;-69
2022/06/19 06:44:30;;;;;;;7.47;4.60;;;;;;;29.04;34.93;98106.09;2618640;54;20039;-69
2022/06/19 06:47:02;;;;;;;7.20;4.70;;;;;;;29.04;34.69;98102.56;2619263;39;20437;-68
2022/06/19 06:49:32;;;;;;;9.25;4.70;;;;;;;29.07;35.15;98096.47;2618162;54;20034;-69
2022/06/19 06:52:02;;;;;;;6.85;4.90;;;;;;;29.16;34.95;98102.63;2618263;54;20031;-69
2022/06/19 06:54:31;;;;;;;7.18;5.07;;;;;;;29.24;34.58;98103.69;2618311;54;20054;-69
2022/06/19 06:57:01;;;;;;;9.77;5.30;;;;;;;29.24;34.57;98099.06;2618191;39;20427;-69
2022/06/19 06:59:34;;;;;;;7.32;5.60;;;;;;;29.35;34.69;98093.97;2618462;54;20126;-70
2022/06/19 07:02:04;;;;;;;12.02;5.18;;;;;;;29.41;34.15;98097.31;2618374;54;20030;-69
2022/06/19 07:04:33;;;;;;;9.40;5.03;;;;;;;29.47;34.52;98094.03;2618285;54;20030;-70
2022/06/19 07:07:08;;;;;;;8.48;5.82;;;;;;;29.61;34.30;98104.69;2619146;39;20535;-69
2022/06/19 07:09:38;;;;;;;9.82;5.43;;;;;;;29.61;34.17;98105.50;2619015;54;20561;-69
2022/06/19 07:12:08;;;;;;;6.28;5.03;;;;;;;29.68;33.87;98106.84;2621432;54;20035;-71
2022/06/19 07:14:41;;;;;;;12.27;5.65;;;;;;;29.65;33.98;98100.16;2623917;54;20037;-69
2022/06/19 07:17:11;;;;;;;7.55;4.97;;;;;;;29.64;34.08;98105.94;2622490;47;20167;-69
2022/06/19 07:19:41;;;;;;;9.68;5.47;;;;;;;29.66;34.05;98092.78;2623041;47;20041;-70
2022/06/19 07:22:14;;;;;;;15.88;5.55;;;;;;;29.66;34.18;98104.47;2623933;54;20569;-69
2022/06/19 07:24:44;;;;;;;11.70;5.05;;;;;;;29.68;34.14;98098.69;2623129;54;20030;-69
2022/06/19 07:27:14;;;;;;;9.60;5.25;;;;;;;29.71;33.80;98092.56;2621942;47;20034;-69
2022/06/19 07:29:48;;;;;;;11.23;5.18;;;;;;;29.84;34.07;98096.91;2618397;47;20609;-70
2022/06/19 07:32:17;;;;;;;8.57;5.10;;;;;;;29.91;33.71;98104.56;2618357;54;20034;-70
2022/06/19 07:34:47;;;;;;;9.13;6.13;;;;;;;29.99;33.82;98101.72;2618842;54;20030;-69
2022/06/19 07:37:17;;;;;;;5.68;5.03;;;;;;;30.07;33.49;98087.22;2617750;47;20530;-70
2022/06/19 07:39:47;;;;;;;9.90;5.40;;;;;;;30.19;33.59;98093.84;2618339;54;20159;-69
2022/06/19 07:42:17;;;;;;;11.60;5.13;;;;;;;30.24;33.22;98088.19;2618470;39;20311;-69
2022/06/19 07:44:49;;;;;;;8.35;5.22;;;;;;;30.32;33.28;98092.72;2618557;54;20518;-68
2022/06/19 07:50:15;;;;;;;16.70;4.80;;;;;;;30.41;33.22;98092.63;2617822;47;20022;-69
2022/06/19 07:52:46;;;;;;;14.32;4.95;;;;;;;30.50;33.20;98093.31;2618083;54;20299;-71
2022/06/19 07:55:19;;;;;;;8.80;5.18;;;;;;;30.51;33.07;98094.91;2618317;54;20034;-69
2022/06/19 07:57:48;;;;;;;6.75;4.72;;;;;;;30.41;32.78;98095.34;2617587;47;20030;-70
2022/06/19 08:00:23;;;;;;;7.28;5.22;;;;;;;30.42;32.93;98097.75;2618442;39;20419;-71
2022/06/19 08:02:54;;;;;;;12.32;5.80;;;;;;;30.46;33.00;98100.59;2617971;54;20037;-69
2022/06/19 08:05:26;;;;;;;7.72;5.40;;;;;;;30.42;32.94;98100.47;2617895;39;20682;-69
2022/06/19 08:07:57;;;;;;;7.20;4.78;;;;;;;30.45;32.69;98109.88;2618344;39;20458;-70
2022/06/19 08:10:29;;;;;;;12.50;5.30;;;;;;;30.52;32.84;98104.66;2618077;54;20044;-69
2022/06/19 12:01:08;;;;;;;15.30;5.90;;;;;;;34.45;28.00;98070.41;2615066;54;20057;-68
2022/06/19 12:03:42;;;;;;;11.32;4.97;;;;;;;34.42;27.12;98065.69;2617863;54;20033;-68
2022/06/19 12:06:14;;;;;;;7.68;4.47;;;;;;;34.49;27.60;98057.56;2619130;39;20430;-67
2022/06/19 12:08:57;;;;;;;13.10;5.50;;;;;;;34.65;27.20;98068.38;2618044;54;20043;-68
2022/06/19 12:11:40;;;;;;;14.63;5.63;;;;;;;34.60;27.15;98055.00;2618189;54;20542;-68
2022/06/19 12:14:12;;;;;;;10.25;5.28;;;;;;;34.62;27.51;98047.16;2616176;47;20038;-67
2022/06/19 12:16:44;;;;;;;11.45;5.70;;;;;;;34.74;27.18;98044.19;2618197;54;20031;-66
2022/06/19 12:19:24;;;;;;;9.25;5.20;;;;;;;34.82;27.11;98040.38;2618803;54;20037;-66
2022/06/19 12:22:00;;;;;;;10.48;5.13;;;;;;;34.86;26.56;98043.97;2618600;54;20034;-66
2022/06/19 12:24:46;;;;;;;9.18;5.50;;;;;;;34.95;26.49;98041.75;2618787;54;20610;-67
2022/06/19 12:27:20;;;;;;;11.55;5.05;;;;;;;35.03;26.10;98041.88;2618514;54;20039;-68
2022/06/19 12:29:54;;;;;;;15.90;5.38;;;;;;;34.91;26.58;98042.88;2618590;54;20036;-66
2022/06/19 12:32:31;;;;;;;6.97;5.15;;;;;;;34.84;26.38;98020.81;2618156;54;20026;-67
2022/06/19 12:35:05;;;;;;;15.00;5.40;;;;;;;34.84;26.33;98023.56;2618739;54;20035;-66
2022/06/19 12:37:35;;;;;;;15.18;6.20;;;;;;;35.01;26.68;98016.75;2618766;54;20038;-66
2022/06/19 12:40:06;;;;;;;9.73;5.38;;;;;;;35.14;26.52;98015.34;2618570;54;20565;-65
2022/06/19 12:42:46;;;;;;;12.52;5.65;;;;;;;35.31;26.05;97997.47;2618537;54;20065;-68
2022/06/19 12:45:35;;;;;;;17.08;5.75;;;;;;;35.47;25.94;98004.31;2618466;54;20698;-67
2022/06/19 12:48:26;;;;;;;17.05;6.28;;;;;;;35.45;25.72;98012.16;2618960;54;20027;-66
2022/06/19 12:51:02;;;;;;;13.25;5.50;;;;;;;35.31;26.10;97998.25;2618215;54;20034;-65
2022/06/19 12:54:06;;;;;;;17.55;5.63;;;;;;;35.33;26.35;97995.94;2618437;54;20145;-65
2022/06/19 12:56:51;;;;;;;9.85;4.90;;;;;;;35.44;26.11;97985.06;2618440;54;20038;-65
2022/06/19 12:59:32;;;;;;;14.98;5.30;;;;;;;35.57;26.11;97989.16;2618387;54;20035;-66
2022/06/19 13:02:10;;;;;;;14.00;5.57;;;;;;;35.71;25.49;97988.47;2618063;54;20023;-65
2022/06/19 13:04:53;;;;;;;10.85;5.18;;;;;;;35.69;25.58;97977.88;2618036;54;20023;-66
2022/06/19 13:07:32;;;;;;;11.65;4.93;;;;;;;35.56;25.54;97978.50;2618009;54;20031;-66
2022/06/19 13:10:21;;;;;;;17.25;12.05;;;;;;;35.70;25.79;97968.44;2618909;54;20572;-66
2022/06/19 13:13:05;;;;;;;11.38;6.10;;;;;;;35.77;25.76;97964.97;2618419;54;20038;-65
2022/06/19 13:15:57;;;;;;;14.85;5.80;;;;;;;35.91;26.08;97969.78;2618604;54;20061;-65
2022/06/19 13:18:55;;;;;;;8.27;5.45;;;;;;;36.01;25.31;97968.31;2618255;54;20470;-66
2022/06/19 13:21:42;;;;;;;13.90;5.28;;;;;;;35.99;25.11;97976.16;2619039;54;20045;-66
2022/06/19 13:24:26;;;;;;;12.55;5.22;;;;;;;35.90;25.06;97969.00;2619203;54;20123;-65
2022/06/19 13:27:16;;;;;;;11.45;4.78;;;;;;;35.99;24.66;97963.22;2619326;54;20026;-67
2022/06/19 13:30:04;;;;;;;11.43;5.03;;;;;;;35.94;24.95;97972.56;2618932;54;20035;-66
2022/06/19 13:32:46;;;;;;;10.48;4.90;;;;;;;36.01;25.36;97957.31;2619208;54;20533;-66
2022/06/19 13:35:27;;;;;;;13.73;5.25;;;;;;;36.13;25.06;97957.81;2619695;39;20473;-64
2022/06/19 13:38:09;;;;;;;14.43;5.63;;;;;;;36.24;24.82;97951.59;2619555;39;20795;-66
2022/06/19 13:40:43;;;;;;;16.00;5.43;;;;;;;36.17;25.52;97946.81;2619518;54;20027;-65
2022/06/19 13:43:28;;;;;;;17.63;4.78;;;;;;;36.22;25.69;97949.22;2619323;54;20030;-65
2022/06/19 13:46:05;;;;;;;15.32;5.47;;;;;;;36.33;25.51;97957.53;2618632;54;20035;-66
2022/06/19 13:48:39;;;;;;;18.63;7.63;;;;;;;36.40;25.26;97955.59;2619061;39;20425;-65
2022/06/19 13:51:14;;;;;;;12.25;5.47;;;;;;;36.47;25.13;97957.66;2618887;54;20034;-66
2022/06/19 13:53:54;;;;;;;11.70;5.03;;;;;;;36.45;24.91;97948.97;2618643;54;20038;-67
2022/06/19 13:56:28;;;;;;;12.45;4.95;;;;;;;36.57;24.52;97956.13;2618974;54;20038;-66
2022/06/19 13:59:28;;;;;;;12.93;4.95;;;;;;;36.61;24.40;97954.97;2619061;54;20034;-67
2022/06/19 14:02:06;;;;;;;11.32;4.50;;;;;;;36.52;24.32;97949.03;2620955;54;20026;-67
2022/06/19 14:04:52;;;;;;;12.10;5.07;;;;;;;36.25;24.48;97950.41;2620474;47;20033;-64
2022/06/19 14:07:59;;;;;;;12.63;5.38;;;;;;;36.37;24.32;97948.13;2619800;54;20552;-67
2022/06/19 14:10:40;;;;;;;10.07;5.28;;;;;;;36.43;24.31;97952.09;2618802;54;20038;-67
2022/06/19 14:13:18;;;;;;;11.40;4.60;;;;;;;36.42;24.39;97953.28;2619585;39;20426;-66
2022/06/19 14:16:01;;;;;;;7.30;4.78;;;;;;;36.35;24.54;97949.69;2621443;54;20038;-66
2022/06/19 14:18:49;;;;;;;9.40;4.63;;;;;;;36.51;24.33;97952.19;2621312;54;20034;-66
2022/06/19 14:21:33;;;;;;;13.57;4.72;;;;;;;36.61;24.24;97952.22;2620976;54;20101;-66
2022/06/19 14:24:10;;;;;;;9.55;4.47;;;;;;;36.63;24.45;97943.59;2619942;47;20053;-64
2022/06/19 14:26:55;;;;;;;8.25;4.47;;;;;;;36.65;23.99;97957.72;2620386;54;20042;-64
2022/06/19 14:29:43;;;;;;;13.55;4.90;;;;;;;36.66;23.46;97945.53;2620321;54;20031;-63
2022/06/19 14:32:15;;;;;;;12.57;4.65;;;;;;;36.67;23.12;97936.13;2620139;54;20038;-63
2022/06/19 14:34:55;;;;;;;10.40;5.10;;;;;;;36.61;23.36;97951.41;2620037;47;20038;-64
2022/06/19 14:37:54;;;;;;;11.93;4.68;;;;;;;36.79;23.11;97946.78;2619906;39;20421;-65
2022/06/19 14:40:57;;;;;;;8.65;4.28;;;;;;;36.80;23.16;97940.09;2618609;54;20046;-64
2022/06/19 14:43:40;;;;;;;10.05;5.22;;;;;;;36.90;22.74;97942.09;2618237;54;20027;-64
2022/06/19 14:46:27;;;;;;;13.50;4.80;;;;;;;36.98;22.52;97931.13;2618443;54;20190;-64
2022/06/19 14:49:16;;;;;;;10.27;4.07;;;;;;;36.97;22.40;97935.06;2618949;54;20027;-66
2022/06/19 14:51:56;;;;;;;10.77;4.53;;;;;;;36.88;22.09;97927.16;2618908;54;20035;-66
2022/06/19 14:54:48;;;;;;;10.63;4.63;;;;;;;36.77;22.63;97920.81;2618694;54;20038;-67
2022/06/19 14:57:24;;;;;;;11.35;4.82;;;;;;;36.86;22.15;97924.78;2618513;54;20026;-65
2022/06/19 15:00:03;;;;;;;16.00;5.57;;;;;;;36.87;21.95;97922.81;2617904;54;20542;-66
2022/06/19 15:02:39;;;;;;;12.60;4.38;;;;;;;36.82;21.88;97926.72;2618727;54;20033;-65
2022/06/19 15:05:20;;;;;;;12.27;4.30;;;;;;;36.72;21.75;97926.69;2618417;54;20065;-65
2022/06/19 15:07:53;;;;;;;9.00;4.63;;;;;;;36.88;21.92;97919.69;2617951;54;20522;-66
2022/06/19 15:10:25;;;;;;;10.07;3.50;;;;;;;37.01;21.58;97913.84;2618415;54;20592;-66
2022/06/19 15:13:19;;;;;;;13.23;4.80;;;;;;;37.19;21.39;97911.91;2618101;54;20079;-65
2022/06/19 15:15:55;;;;;;;8.90;4.13;;;;;;;37.04;21.43;97913.84;2617741;54;20039;-65
2022/06/19 15:18:29;;;;;;;7.85;4.18;;;;;;;36.95;21.44;97929.97;2618888;39;20407;-65
2022/06/19 15:21:26;;;;;;;16.10;4.53;;;;;;;36.89;21.38;97909.44;2618253;54;20035;-66
2022/06/19 15:23:56;;;;;;;11.65;4.07;;;;;;;36.93;21.54;97913.81;2619252;39;20440;-64
2022/06/19 15:26:51;;;;;;;11.52;4.10;;;;;;;36.87;21.83;97909.06;2617873;47;20022;-65
2022/06/19 15:29:47;;;;;;;10.05;4.90;;;;;;;36.78;21.79;97909.41;2617871;54;20023;-66
2022/06/19 15:32:56;;;;;;;11.38;4.20;;;;;;;36.81;21.62;97922.41;2618480;54;20034;-65
2022/06/19 15:36:08;;;;;;;13.52;5.03;;;;;;;36.80;21.67;97912.56;2618268;54;20038;-63
2022/06/19 15:38:59;;;;;;;18.25;4.72;;;;;;;36.99;21.82;97905.16;2618665;39;20454;-65
2022/06/19 15:41:58;;;;;;;10.52;4.82;;;;;;;37.07;21.42;97910.31;2617763;54;20035;-65
2022/06/19 15:44:51;;;;;;;10.90;4.80;;;;;;;37.05;21.27;97914.63;2618326;54;20082;-67
2022/06/19 15:47:20;;;;;;;9.13;4.32;;;;;;;37.03;21.26;97906.78;2618247;54;20031;-66
2022/06/19 15:49:56;;;;;;;10.18;4.65;;;;;;;37.15;21.41;97916.63;2618311;54;20041;-68
2022/06/19 15:52:31;;;;;;;12.82;4.68;;;;;;;37.12;21.06;97903.63;2618262;54;20549;-67
2022/06/19 15:55:12;;;;;;;13.07;5.13;;;;;;;37.25;20.96;97901.28;2617740;54;20801;-66
2022/06/19 15:57:43;;;;;;;9.10;4.55;;;;;;;37.32;20.81;97893.03;2618215;54;20034;-68